createdAt,value
2022-12-18T00:01:24.687Z,101987.75
2022-12-18T00:03:51.209Z,101993.03
2022-12-18T00:06:17.622Z,102003.59
2022-12-18T00:08:43.937Z,101997.59
2022-12-18T00:11:10.259Z,101995.25
2022-12-18T00:13:37.026Z,102000.47
2022-12-18T00:16:03.762Z,101999.75
2022-12-18T00:18:30.144Z,102007.88
2022-12-18T00:20:56.451Z,102016.37
2022-12-18T00:23:22.772Z,102027.16
2022-12-18T00:25:49.083Z,102039.06
2022-12-18T00:28:15.415Z,102025.75
2022-12-18T00:30:41.743Z,102030.16
2022-12-18T00:33:08.069Z,102027.09
2022-12-18T00:35:34.429Z,102029.97
2022-12-18T00:38:00.752Z,102035.38
2022-12-18T00:40:27.067Z,102031.84
2022-12-18T00:42:56.536Z,102034.59
2022-12-18T00:45:22.885Z,102044.91
2022-12-18T00:47:49.343Z,102045.94
2022-12-18T00:50:15.641Z,102059.25
2022-12-18T00:52:41.997Z,102060.63
2022-12-18T00:55:08.316Z,102058.53
2022-12-18T00:57:34.653Z,102070.16
2022-12-18T01:00:00.974Z,102056.47
2022-12-18T01:02:27.523Z,102048.66
2022-12-18T01:04:54.259Z,102055.91
2022-12-18T01:07:20.595Z,102049.81
2022-12-18T01:09:46.905Z,102044.88
2022-12-18T01:12:13.257Z,102059.47
2022-12-18T01:14:39.601Z,102064.50
2022-12-18T01:17:05.920Z,102068.44
2022-12-18T01:19:32.237Z,102061.50
2022-12-18T01:21:58.646Z,102064.63
2022-12-18T01:24:24.949Z,102061.06
2022-12-18T01:26:51.266Z,102073.72
2022-12-18T01:29:17.578Z,102076.88
2022-12-18T01:31:43.946Z,102083.19
2022-12-18T01:34:10.379Z,102083.06
2022-12-18T01:36:36.693Z,102074.19
2022-12-18T01:39:03.052Z,102078.09
2022-12-18T01:41:52.442Z,102081.97
2022-12-18T01:44:18.750Z,102082.16
2022-12-18T01:46:45.064Z,102084.47
2022-12-18T01:49:11.383Z,102087.06
2022-12-18T01:51:37.746Z,102071.34
2022-12-18T01:54:04.304Z,102084.25
2022-12-18T01:56:30.613Z,102080.00
2022-12-18T01:58:56.928Z,102076.31
2022-12-18T02:01:23.340Z,102087.28
2022-12-18T02:03:49.755Z,102083.75
2022-12-18T02:06:16.072Z,102088.81
2022-12-18T02:08:42.405Z,102082.72
2022-12-18T02:11:08.709Z,102083.91
2022-12-18T02:13:35.328Z,102087.09
2022-12-18T02:16:01.797Z,102082.72
2022-12-18T02:18:28.138Z,102082.88
2022-12-18T02:20:54.457Z,102095.09
2022-12-18T02:23:20.798Z,102084.25
2022-12-18T02:25:47.115Z,102087.19
2022-12-18T02:28:13.422Z,102087.72
2022-12-18T02:30:39.828Z,102083.28
2022-12-18T02:33:07.815Z,102087.53
2022-12-18T02:35:34.195Z,102095.44
2022-12-18T02:38:00.547Z,102100.69
2022-12-18T02:40:26.871Z,102104.03
2022-12-18T02:42:53.177Z,102101.28
2022-12-18T02:45:19.498Z,102092.88
2022-12-18T02:47:45.807Z,102097.00
2022-12-18T02:50:12.190Z,102094.66
2022-12-18T02:52:38.508Z,102101.19
2022-12-18T02:55:04.834Z,102095.06
2022-12-18T02:57:31.153Z,102093.53
2022-12-18T02:59:57.473Z,102092.69
2022-12-18T03:02:24.010Z,102097.91
2022-12-18T03:04:50.595Z,102102.88
2022-12-18T03:07:16.945Z,102098.94
2022-12-18T03:09:43.258Z,102101.66
2022-12-18T03:12:24.959Z,102095.91
2022-12-18T03:14:51.263Z,102098.75
2022-12-18T03:17:17.598Z,102092.94
2022-12-18T03:19:43.967Z,102089.84
2022-12-18T03:22:10.286Z,102102.34
2022-12-18T03:24:38.443Z,102105.19
2022-12-18T03:27:04.779Z,102103.53
2022-12-18T03:29:31.113Z,102108.81
2022-12-18T03:31:57.436Z,102109.78
2022-12-18T03:34:23.760Z,102108.41
2022-12-18T03:36:50.082Z,102101.47
2022-12-18T03:39:16.413Z,102106.81
2022-12-18T03:41:42.735Z,102107.75
2022-12-18T03:44:09.066Z,102110.81
2022-12-18T03:46:35.384Z,102117.25
2022-12-18T03:49:01.715Z,102109.78
2022-12-18T03:51:28.027Z,102117.25
2022-12-18T03:53:54.349Z,102110.16
2022-12-18T03:56:20.688Z,102115.59
2022-12-18T03:58:47.020Z,102124.06
2022-12-18T04:01:13.583Z,102125.09
2022-12-18T04:03:40.441Z,102119.00
2022-12-18T04:06:07.103Z,102122.72
2022-12-18T04:08:33.423Z,102120.16
2022-12-18T04:10:59.751Z,102119.00
2022-12-18T04:13:26.066Z,102111.19
2022-12-18T04:15:52.471Z,102113.25
2022-12-18T04:18:18.834Z,102119.00
2022-12-18T04:20:45.164Z,102129.31
2022-12-18T04:23:11.486Z,102138.47
2022-12-18T04:25:37.800Z,102138.13
2022-12-18T04:28:04.129Z,102133.22
2022-12-18T04:30:30.444Z,102137.78
2022-12-18T04:32:56.774Z,102135.94
2022-12-18T04:35:23.104Z,102131.84
2022-12-18T04:37:49.441Z,102131.87
2022-12-18T04:40:15.739Z,102136.25
2022-12-18T04:42:45.261Z,102139.66
2022-12-18T04:45:11.591Z,102133.72
2022-12-18T04:47:37.922Z,102142.34
2022-12-18T04:50:04.239Z,102142.03
2022-12-18T04:52:30.574Z,102140.84
2022-12-18T04:54:56.890Z,102148.28
2022-12-18T04:57:23.502Z,102148.78
2022-12-18T04:59:49.815Z,102159.44
2022-12-18T05:02:16.285Z,102142.53
2022-12-18T05:04:42.681Z,102142.00
2022-12-18T05:07:08.994Z,102131.19
2022-12-18T05:09:35.320Z,102143.16
2022-12-18T05:12:01.639Z,102137.94
2022-12-18T05:14:30.219Z,102152.97
2022-12-18T05:17:00.711Z,102148.72
2022-12-18T05:19:27.462Z,102144.66
2022-12-18T05:21:53.765Z,102142.31
2022-12-18T05:24:20.306Z,102142.13
2022-12-18T05:26:46.612Z,102139.59
2022-12-18T05:29:13.405Z,102141.78
2022-12-18T05:31:40.543Z,102141.94
2022-12-18T05:34:08.530Z,102154.66
2022-12-18T05:36:34.844Z,102153.62
2022-12-18T05:39:01.403Z,102156.50
2022-12-18T05:41:27.731Z,102149.72
2022-12-18T05:43:54.049Z,102141.44
2022-12-18T05:46:20.415Z,102148.34
2022-12-18T05:48:46.771Z,102137.34
2022-12-18T05:51:13.104Z,102157.09
2022-12-18T05:53:39.942Z,102156.59
2022-12-18T05:56:06.764Z,102146.66
2022-12-18T05:58:33.096Z,102154.25
2022-12-18T06:00:59.412Z,102153.91
2022-12-18T06:03:30.663Z,102155.75
2022-12-18T06:05:59.946Z,102164.81
2022-12-18T06:08:26.268Z,102163.97
2022-12-18T06:10:53.730Z,102158.22
2022-12-18T06:13:20.043Z,102170.72
2022-12-18T06:15:46.515Z,102167.00
2022-12-18T06:18:12.930Z,102167.66
2022-12-18T06:20:40.875Z,102166.75
2022-12-18T06:23:07.229Z,102175.72
2022-12-18T06:25:34.076Z,102175.44
2022-12-18T06:28:00.408Z,102179.31
2022-12-18T06:30:26.714Z,102186.25
2022-12-18T06:32:56.701Z,102179.25
2022-12-18T06:35:23.305Z,102171.50
2022-12-18T06:37:49.617Z,102183.28
2022-12-18T06:40:16.015Z,102186.25
2022-12-18T06:42:42.335Z,102191.81
2022-12-18T06:45:08.688Z,102190.69
2022-12-18T06:47:35.180Z,102184.81
2022-12-18T06:50:01.485Z,102185.31
2022-12-18T06:52:27.793Z,102187.38
2022-12-18T06:54:54.107Z,102188.00
2022-12-18T06:57:20.441Z,102192.78
2022-12-18T06:59:46.760Z,102196.66
2022-12-18T07:02:13.896Z,102193.31
2022-12-18T07:04:40.680Z,102201.22
2022-12-18T07:07:07.316Z,102208.78
2022-12-18T07:09:33.631Z,102209.31
2022-12-18T07:11:59.967Z,102213.53
2022-12-18T07:14:26.294Z,102207.28
2022-12-18T07:16:52.662Z,102222.63
2022-12-18T07:19:19.209Z,102214.34
2022-12-18T07:21:45.549Z,102224.81
2022-12-18T07:24:11.860Z,102218.78
2022-12-18T07:26:38.355Z,102209.16
2022-12-18T07:29:04.691Z,102203.44
2022-12-18T07:31:31.125Z,102211.47
2022-12-18T07:33:57.723Z,102222.97
2022-12-18T07:36:24.038Z,102213.28
2022-12-18T07:38:50.369Z,102226.09
2022-12-18T07:41:16.767Z,102222.53
2022-12-18T07:43:43.626Z,102238.09
2022-12-18T07:46:10.416Z,102239.28
2022-12-18T07:48:36.844Z,102236.78
2022-12-18T07:51:03.840Z,102241.53
2022-12-18T07:53:30.177Z,102241.25
2022-12-18T07:56:25.387Z,102251.38
2022-12-18T07:58:42.985Z,102249.03
2022-12-18T08:01:09.747Z,102248.47
2022-12-18T08:03:38.299Z,102253.28
2022-12-18T08:06:04.907Z,102246.91
2022-12-18T08:08:31.277Z,102238.66
2022-12-18T08:10:57.595Z,102233.09
2022-12-18T08:13:26.981Z,102235.81
2022-12-18T08:15:53.315Z,102232.31
2022-12-18T08:18:19.638Z,102229.47
2022-12-18T08:20:45.982Z,102226.94
2022-12-18T08:23:12.285Z,102214.59
2022-12-18T08:25:38.615Z,102216.63
2022-12-18T08:28:04.933Z,102212.53
2022-12-18T08:30:31.373Z,102217.63
2022-12-18T08:32:57.779Z,102222.47
2022-12-18T08:35:24.149Z,102226.81
2022-12-18T08:37:50.638Z,102224.94
2022-12-18T08:40:16.942Z,102225.00
2022-12-18T08:43:02.249Z,102224.56
2022-12-18T08:45:28.555Z,102219.66
2022-12-18T08:47:54.938Z,102218.56
2022-12-18T08:50:21.297Z,102231.78
2022-12-18T08:52:47.612Z,102214.25
2022-12-18T08:55:14.725Z,102213.63
2022-12-18T08:57:41.038Z,102218.25
2022-12-18T09:00:07.346Z,102217.56
2022-12-18T09:02:33.898Z,102226.31
2022-12-18T09:05:00.359Z,102235.69
2022-12-18T09:07:26.764Z,102229.34
2022-12-18T09:09:53.125Z,102220.94
2022-12-18T09:12:19.504Z,102211.38
2022-12-18T09:14:45.828Z,102219.69
2022-12-18T09:17:12.332Z,102225.81
2022-12-18T09:19:38.738Z,102230.69
2022-12-18T09:22:05.058Z,102241.81
2022-12-18T09:24:31.520Z,102231.66
2022-12-18T09:26:58.216Z,102240.31
2022-12-18T09:29:24.601Z,102248.44
2022-12-18T09:31:50.917Z,102248.22
2022-12-18T09:34:17.814Z,102256.66
2022-12-18T09:36:44.375Z,102247.97
2022-12-18T09:39:10.716Z,102250.75
2022-12-18T09:41:37.082Z,102253.81
2022-12-18T09:44:03.432Z,102243.44
2022-12-18T09:46:29.797Z,102235.09
2022-12-18T09:48:56.161Z,102241.44
2022-12-18T09:51:22.500Z,102236.84
2022-12-18T09:53:48.847Z,102235.47
2022-12-18T09:56:15.198Z,102234.09
2022-12-18T09:58:41.885Z,102233.00
2022-12-18T10:01:08.594Z,102230.69
2022-12-18T10:03:34.931Z,102229.78
2022-12-18T10:06:01.361Z,102226.97
2022-12-18T10:08:27.686Z,102217.47
2022-12-18T10:10:54.090Z,102205.53
2022-12-18T10:13:20.415Z,102213.34
2022-12-18T10:15:49.028Z,102194.19
2022-12-18T10:18:20.270Z,102187.06
2022-12-18T10:20:48.324Z,102186.25
2022-12-18T10:23:14.718Z,102184.88
2022-12-18T10:25:41.144Z,102183.31
2022-12-18T10:28:07.465Z,102167.06
2022-12-18T10:30:33.784Z,102170.50
2022-12-18T10:33:00.133Z,102163.31
2022-12-18T10:35:26.578Z,102159.97
2022-12-18T10:37:52.909Z,102158.94
2022-12-18T10:40:22.642Z,102153.91
2022-12-18T10:42:49.153Z,102148.84
2022-12-18T10:45:15.553Z,102145.91
2022-12-18T10:47:43.434Z,102144.00
2022-12-18T10:50:09.745Z,102139.38
2022-12-18T10:52:38.664Z,102138.09
2022-12-18T10:55:08.384Z,102130.31
2022-12-18T10:57:34.751Z,102153.03
2022-12-18T11:00:01.080Z,102140.41
2022-12-18T11:02:27.830Z,102142.09
2022-12-18T11:04:54.231Z,102139.38
2022-12-18T11:07:20.533Z,102138.72
2022-12-18T11:09:46.856Z,102142.50
2022-12-18T11:12:13.179Z,102134.31
2022-12-18T11:14:44.993Z,102133.66
2022-12-18T11:17:28.185Z,102127.28
2022-12-18T11:19:54.682Z,102125.66
2022-12-18T11:22:21.375Z,102119.13
2022-12-18T11:25:08.350Z,102116.22
2022-12-18T11:27:34.207Z,102113.94
2022-12-18T11:30:00.524Z,102104.03
2022-12-18T11:32:26.881Z,102099.34
2022-12-18T11:34:58.783Z,102112.59
2022-12-18T11:37:26.798Z,102114.28
2022-12-18T11:39:53.613Z,102115.84
2022-12-18T11:42:19.934Z,102108.13
2022-12-18T11:44:46.250Z,102107.50
2022-12-18T11:47:12.572Z,102106.50
2022-12-18T11:49:40.231Z,102106.72
2022-12-18T11:52:06.564Z,102101.91
2022-12-18T11:54:32.905Z,102105.91
2022-12-18T11:56:59.221Z,102107.78
2022-12-18T11:59:26.792Z,102112.03
2022-12-18T12:01:53.561Z,102118.13
2022-12-18T12:04:20.022Z,102125.50
2022-12-18T12:06:46.481Z,102118.97
2022-12-18T12:09:12.783Z,102108.47
2022-12-18T12:11:39.094Z,102118.75
2022-12-18T12:14:05.409Z,102119.81
2022-12-18T12:16:31.777Z,102129.91
2022-12-18T12:18:58.223Z,102133.91
2022-12-18T12:21:24.744Z,102129.72
2022-12-18T12:23:51.076Z,102136.88
2022-12-18T12:26:17.374Z,102133.72
2022-12-18T12:28:43.973Z,102135.78
2022-12-18T12:31:10.442Z,102141.47
2022-12-18T12:33:36.929Z,102136.22
2022-12-18T12:36:03.355Z,102134.31
2022-12-18T12:38:29.666Z,102136.88
2022-12-18T12:41:02.394Z,102149.47
2022-12-18T12:43:29.339Z,102162.09
2022-12-18T12:45:56.155Z,102163.75
2022-12-18T12:48:22.561Z,102163.97
2022-12-18T12:50:48.933Z,102150.53
2022-12-18T12:53:15.374Z,102150.31
2022-12-18T12:55:43.005Z,102148.41
2022-12-18T12:58:09.722Z,102139.78
2022-12-18T13:00:36.047Z,102137.66
2022-12-18T13:03:03.348Z,102146.94
2022-12-18T13:05:30.168Z,102141.47
2022-12-18T13:07:58.576Z,102143.75
2022-12-18T13:10:27.177Z,102135.72
2022-12-18T13:12:56.708Z,102129.84
2022-12-18T13:15:23.079Z,102134.69
2022-12-18T13:17:49.462Z,102134.06
2022-12-18T13:20:17.244Z,102132.97
2022-12-18T13:22:43.639Z,102132.94
2022-12-18T13:25:10.162Z,102125.41
2022-12-18T13:27:36.544Z,102147.00
2022-12-18T13:30:02.863Z,102136.25
2022-12-18T13:32:29.616Z,102142.56
2022-12-18T13:34:55.962Z,102142.91
2022-12-18T13:37:22.353Z,102139.56
2022-12-18T13:39:48.734Z,102144.41
2022-12-18T13:42:35.026Z,102138.94
2022-12-18T13:45:01.601Z,102144.31
2022-12-18T13:47:27.919Z,102144.81
2022-12-18T13:49:54.317Z,102139.53
2022-12-18T13:52:20.630Z,102140.19
2022-12-18T13:54:47.004Z,102139.97
2022-12-18T13:57:14.517Z,102137.50
2022-12-18T13:59:42.808Z,102133.22
2022-12-18T14:02:09.305Z,102128.75
2022-12-18T14:04:35.878Z,102136.94
2022-12-18T14:07:02.196Z,102133.81
2022-12-18T14:09:28.587Z,102137.78
2022-12-18T14:12:16.535Z,102126.25
2022-12-18T14:14:42.946Z,102150.94
2022-12-18T14:17:09.325Z,102144.22
2022-12-18T14:19:35.949Z,102143.34
2022-12-18T14:22:02.373Z,102139.69
2022-12-18T14:24:29.789Z,102145.78
2022-12-18T14:26:56.205Z,102134.03
2022-12-18T14:29:22.650Z,102133.78
2022-12-18T14:31:48.977Z,102119.34
2022-12-18T14:34:16.926Z,102124.87
2022-12-18T14:36:43.237Z,102114.97
2022-12-18T14:39:09.553Z,102120.19
2022-12-18T14:41:35.873Z,102105.19
2022-12-18T14:44:02.184Z,102101.53
2022-12-18T14:46:28.590Z,102105.69
2022-12-18T14:48:55.211Z,102105.44
2022-12-18T14:51:21.539Z,102107.38
2022-12-18T14:53:54.554Z,102107.50
2022-12-18T14:56:21.491Z,102108.19
2022-12-18T14:58:48.460Z,102118.41
2022-12-18T15:01:14.903Z,102123.25
2022-12-18T15:03:41.619Z,102124.44
2022-12-18T15:06:08.153Z,102122.53
2022-12-18T15:08:34.481Z,102121.31
2022-12-18T15:11:01.045Z,102122.53
2022-12-18T15:13:28.409Z,102127.72
2022-12-18T15:15:54.862Z,102114.81
2022-12-18T15:18:22.143Z,102104.13
2022-12-18T15:20:49.624Z,102105.63
2022-12-18T15:23:16.266Z,102114.69
2022-12-18T15:25:43.471Z,102111.00
2022-12-18T15:28:09.802Z,102103.16
2022-12-18T15:30:36.192Z,102104.06
2022-12-18T15:33:02.533Z,102107.44
2022-12-18T15:35:28.889Z,102109.31
2022-12-18T15:37:55.208Z,102109.13
2022-12-18T15:40:21.553Z,102107.19
2022-12-18T15:43:06.796Z,102094.41
2022-12-18T15:45:33.355Z,102092.13
2022-12-18T15:47:59.720Z,102089.75
2022-12-18T15:50:26.030Z,102090.63
2022-12-18T15:52:53.343Z,102088.06
2022-12-18T15:55:38.580Z,102086.75
2022-12-18T15:58:05.832Z,102094.97
2022-12-18T16:00:32.139Z,102094.16
2022-12-18T16:02:58.677Z,102090.59
2022-12-18T16:05:25.153Z,102089.09
2022-12-18T16:07:51.493Z,102085.94
2022-12-18T16:10:17.843Z,102086.56
2022-12-18T16:12:44.158Z,102085.34
2022-12-18T16:15:10.490Z,102075.72
2022-12-18T16:17:36.837Z,102071.97
2022-12-18T16:20:03.182Z,102077.16
2022-12-18T16:22:29.688Z,102074.63
2022-12-18T16:24:56.004Z,102068.41
2022-12-18T16:27:22.369Z,102075.09
2022-12-18T16:29:48.738Z,102073.63
2022-12-18T16:32:15.123Z,102078.84
2022-12-18T16:34:41.496Z,102069.44
2022-12-18T16:37:07.835Z,102074.88
2022-12-18T16:39:35.164Z,102062.09
2022-12-18T16:42:01.941Z,102059.78
2022-12-18T16:44:32.109Z,102070.28
2022-12-18T16:47:02.849Z,102062.88
2022-12-18T16:49:29.769Z,102066.72
2022-12-18T16:51:56.082Z,102059.66
2022-12-18T16:54:22.421Z,102055.81
2022-12-18T16:56:50.501Z,102052.31
2022-12-18T16:59:16.807Z,102060.50
2022-12-18T17:01:44.206Z,102062.19
2022-12-18T17:04:10.645Z,102068.91
2022-12-18T17:06:37.064Z,102064.91
2022-12-18T17:09:03.424Z,102068.00
2022-12-18T17:11:29.742Z,102050.03
2022-12-18T17:13:56.069Z,102050.47
2022-12-18T17:16:24.528Z,102037.88
2022-12-18T17:18:50.866Z,102042.72
2022-12-18T17:21:17.233Z,102044.41
2022-12-18T17:23:46.620Z,102041.59
2022-12-18T17:26:12.942Z,102041.84
2022-12-18T17:28:39.296Z,102042.84
2022-12-18T17:31:05.696Z,102036.22
2022-12-18T17:33:32.052Z,102032.91
2022-12-18T17:35:58.370Z,102033.69
2022-12-18T17:38:24.691Z,102027.63
2022-12-18T17:40:51.019Z,102027.88
2022-12-18T17:43:17.438Z,102033.78
2022-12-18T17:45:43.886Z,102026.87
2022-12-18T17:48:10.213Z,102036.28
2022-12-18T17:50:36.534Z,102023.31
2022-12-18T17:53:02.871Z,102015.97
2022-12-18T17:55:29.270Z,102013.06
2022-12-18T17:57:55.579Z,102022.91
2022-12-18T18:00:22.146Z,102009.47
2022-12-18T18:02:48.632Z,102016.22
2022-12-18T18:05:15.092Z,102013.06
2022-12-18T18:07:42.712Z,102018.38
2022-12-18T18:10:09.087Z,102009.56
2022-12-18T18:12:54.212Z,102010.81
2022-12-18T18:15:20.527Z,102008.97
2022-12-18T18:17:46.838Z,102015.66
2022-12-18T18:20:20.699Z,102020.25
2022-12-18T18:22:48.763Z,102013.31
2022-12-18T18:25:15.104Z,102009.75
2022-12-18T18:27:41.643Z,102013.59
2022-12-18T18:30:08.103Z,102009.44
2022-12-18T18:32:37.987Z,102001.44
2022-12-18T18:35:04.599Z,101998.56
2022-12-18T18:37:30.906Z,101999.84
2022-12-18T18:39:57.296Z,101998.34
2022-12-18T18:42:23.625Z,101992.28
2022-12-18T18:44:49.950Z,101986.44
2022-12-18T18:47:16.276Z,101983.06
2022-12-18T18:49:42.598Z,101985.41
2022-12-18T18:52:08.921Z,101975.13
2022-12-18T18:54:35.342Z,101979.50
2022-12-18T18:59:48.106Z,101963.38
2022-12-18T19:02:14.557Z,101971.56
2022-12-18T19:04:44.957Z,101968.19
2022-12-18T19:07:12.803Z,101963.75
2022-12-18T19:09:40.862Z,101960.19
2022-12-18T19:12:26.069Z,101940.94
2022-12-18T19:14:52.537Z,101954.59
2022-12-18T19:17:18.857Z,101942.22
2022-12-18T19:19:45.463Z,101934.87
2022-12-18T19:22:11.959Z,101934.25
2022-12-18T19:24:38.377Z,101938.00
2022-12-18T19:27:04.919Z,101922.03
2022-12-18T19:29:31.432Z,101917.63
2022-12-18T19:31:57.790Z,101922.69
2022-12-18T19:34:24.235Z,101927.31
2022-12-18T19:36:53.899Z,101918.72
2022-12-18T19:39:24.524Z,101904.84
2022-12-18T19:41:52.599Z,101905.72
2022-12-18T19:44:18.925Z,101907.19
2022-12-18T19:46:46.283Z,101904.06
2022-12-18T19:49:13.644Z,101904.44
2022-12-18T19:51:44.634Z,101886.41
2022-12-18T19:54:16.355Z,101888.38
2022-12-18T19:56:43.437Z,101894.00
2022-12-18T19:59:09.747Z,101889.38
2022-12-18T20:01:36.358Z,101886.47
2022-12-18T20:04:02.952Z,101900.72
2022-12-18T20:06:32.780Z,101889.16
2022-12-18T20:08:59.572Z,101878.06
2022-12-18T20:11:27.097Z,101877.44
2022-12-18T20:13:53.429Z,101883.53
2022-12-18T20:16:19.868Z,101885.62
2022-12-18T20:18:46.302Z,101873.84
2022-12-18T20:21:14.212Z,101883.97
2022-12-18T20:23:41.149Z,101892.38
2022-12-18T20:26:08.624Z,101881.84
2022-12-18T20:28:35.138Z,101885.62
2022-12-18T20:31:01.539Z,101884.16
2022-12-18T20:33:28.155Z,101882.06
2022-12-18T20:35:54.469Z,101884.19
2022-12-18T20:38:21.659Z,101874.72
2022-12-18T20:40:49.957Z,101875.78
2022-12-18T20:43:17.469Z,101878.75
2022-12-18T20:45:44.012Z,101877.28
2022-12-18T20:48:12.192Z,101864.47
2022-12-18T20:50:38.514Z,101879.56
2022-12-18T20:53:04.904Z,101874.56
2022-12-18T20:55:31.281Z,101862.62
2022-12-18T20:57:58.171Z,101859.25
2022-12-18T21:00:24.488Z,101836.59
2022-12-18T21:02:50.984Z,101839.31
2022-12-18T21:05:17.365Z,101853.38
2022-12-18T21:07:43.787Z,101857.37
2022-12-18T21:10:10.111Z,101855.28
2022-12-18T21:12:58.735Z,101850.87
2022-12-18T21:15:28.929Z,101859.47
2022-12-18T21:17:55.519Z,101857.78
2022-12-18T21:20:21.835Z,101860.94
2022-12-18T21:22:49.520Z,101876.03
2022-12-18T21:25:15.937Z,101862.00
2022-12-18T21:27:42.290Z,101873.75
2022-12-18T21:30:08.628Z,101862.19
2022-12-18T21:32:34.940Z,101861.59
2022-12-18T21:35:01.257Z,101865.97
2022-12-18T21:37:27.583Z,101862.81
2022-12-18T21:39:53.901Z,101860.50
2022-12-18T21:42:39.174Z,101861.78
2022-12-18T22:02:01.026Z,101866.81
2022-12-18T22:04:27.436Z,101855.91
2022-12-18T22:06:54.547Z,101846.25
2022-12-18T22:09:21.011Z,101847.91
2022-12-18T22:11:47.335Z,101837.41
2022-12-18T22:14:14.813Z,101829.66
2022-12-18T22:16:41.239Z,101825.66
2022-12-18T22:19:08.647Z,101834.69
2022-12-18T22:21:35.130Z,101831.56
2022-12-18T22:24:01.433Z,101832.81
2022-12-18T22:26:27.771Z,101835.34
2022-12-18T22:29:12.844Z,101834.69
2022-12-18T22:31:39.277Z,101841.81
2022-12-18T22:34:05.675Z,101834.91
2022-12-18T22:36:32.000Z,101834.91
2022-12-18T22:38:58.329Z,101820.44
2022-12-18T22:41:24.806Z,101823.59
2022-12-18T22:43:51.162Z,101821.91
2022-12-18T22:46:17.546Z,101816.84
2022-12-18T22:48:43.937Z,101813.31
2022-12-18T22:51:10.256Z,101812.66
2022-12-18T22:53:36.691Z,101812.66
2022-12-18T22:56:03.037Z,101807.22
2022-12-18T22:58:29.603Z,101807.84
2022-12-18T23:00:55.934Z,101792.72
2022-12-18T23:03:22.271Z,101798.41
2022-12-18T23:05:48.635Z,101780.78
2022-12-18T23:08:16.470Z,101776.59
2022-12-18T23:10:42.797Z,101768.81
2022-12-18T23:13:09.152Z,101771.53
2022-12-18T23:15:35.501Z,101771.75
2022-12-18T23:18:01.988Z,101771.75
2022-12-18T23:20:28.350Z,101760.62
2022-12-18T23:22:54.684Z,101760.00
2022-12-18T23:25:21.290Z,101749.31
2022-12-18T23:27:47.707Z,101748.87
2022-12-18T23:30:14.022Z,101754.34
2022-12-18T23:32:40.416Z,101746.59
2022-12-18T23:35:06.744Z,101746.56
2022-12-18T23:37:58.302Z,101738.81
2022-12-18T23:40:21.273Z,101740.06
2022-12-18T23:42:47.604Z,101720.56
2022-12-18T23:45:17.563Z,101709.03
2022-12-18T23:47:44.765Z,101726.22
2022-12-18T23:50:13.370Z,101690.78
2022-12-18T23:52:40.121Z,101704.84
2022-12-18T23:55:06.443Z,101702.75
2022-12-18T23:57:32.800Z,101686.59
2022-12-18T23:59:59.123Z,101689.53
